sensor_id;sensor_type;location;lat;lon;timestamp;P1;durP1;ratioP1;P2;durP2;ratioP2
34832;SDS011;55941;50.800;4.342;2023-05-07T00:00:38;10.75;;;2.83;;
34832;SDS011;55941;50.800;4.342;2023-05-07T00:03:05;11.48;;;3.22;;
34832;SDS011;55941;50.800;4.342;2023-05-07T00:05:31;9.68;;;3.03;;
34832;SDS011;55941;50.800;4.342;2023-05-07T00:07:58;10.30;;;2.92;;
34832;SDS011;55941;50.800;4.342;2023-05-07T00:10:24;12.20;;;3.03;;
34832;SDS011;55941;50.800;4.342;2023-05-07T00:12:50;10.02;;;2.92;;
34832;SDS011;55941;50.800;4.342;2023-05-07T00:15:16;12.68;;;3.55;;
34832;SDS011;55941;50.800;4.342;2023-05-07T00:17:42;11.93;;;3.60;;
34832;SDS011;55941;50.800;4.342;2023-05-07T00:20:08;13.05;;;3.03;;
34832;SDS011;55941;50.800;4.342;2023-05-07T00:22:34;10.57;;;3.20;;
34832;SDS011;55941;50.800;4.342;2023-05-07T00:25:00;6.18;;;2.80;;
34832;SDS011;55941;50.800;4.342;2023-05-07T00:27:26;11.63;;;2.90;;
34832;SDS011;55941;50.800;4.342;2023-05-07T00:29:52;11.55;;;2.83;;
34832;SDS011;55941;50.800;4.342;2023-05-07T00:32:17;14.13;;;2.90;;
34832;SDS011;55941;50.800;4.342;2023-05-07T00:34:43;11.35;;;2.63;;
34832;SDS011;55941;50.800;4.342;2023-05-07T00:37:09;11.25;;;2.90;;
34832;SDS011;55941;50.800;4.342;2023-05-07T00:39:36;7.88;;;2.60;;
34832;SDS011;55941;50.800;4.342;2023-05-07T00:42:02;12.10;;;2.92;;
34832;SDS011;55941;50.800;4.342;2023-05-07T00:44:29;10.57;;;2.60;;
34832;SDS011;55941;50.800;4.342;2023-05-07T00:46:55;12.23;;;2.42;;
34832;SDS011;55941;50.800;4.342;2023-05-07T00:49:24;10.60;;;3.40;;
34832;SDS011;55941;50.800;4.342;2023-05-07T00:52:03;11.02;;;3.50;;
34832;SDS011;55941;50.800;4.342;2023-05-07T00:54:30;11.73;;;2.92;;
34832;SDS011;55941;50.800;4.342;2023-05-07T00:56:57;8.20;;;2.67;;
34832;SDS011;55941;50.800;4.342;2023-05-07T00:59:23;10.38;;;2.67;;
34832;SDS011;55941;50.800;4.342;2023-05-07T01:01:48;14.18;;;3.00;;
34832;SDS011;55941;50.800;4.342;2023-05-07T01:04:14;12.30;;;3.42;;
34832;SDS011;55941;50.800;4.342;2023-05-07T01:06:40;8.93;;;2.40;;
34832;SDS011;55941;50.800;4.342;2023-05-07T01:09:06;6.78;;;2.38;;
34832;SDS011;55941;50.800;4.342;2023-05-07T01:11:34;8.48;;;2.72;;
34832;SDS011;55941;50.800;4.342;2023-05-07T01:13:59;17.33;;;3.10;;
34832;SDS011;55941;50.800;4.342;2023-05-07T01:16:25;9.20;;;2.70;;
34832;SDS011;55941;50.800;4.342;2023-05-07T01:18:52;15.32;;;2.90;;
34832;SDS011;55941;50.800;4.342;2023-05-07T01:21:18;11.32;;;2.65;;
34832;SDS011;55941;50.800;4.342;2023-05-07T01:26:15;12.48;;;2.63;;
34832;SDS011;55941;50.800;4.342;2023-05-07T01:28:44;11.60;;;2.70;;
34832;SDS011;55941;50.800;4.342;2023-05-07T01:31:10;14.77;;;3.13;;
34832;SDS011;55941;50.800;4.342;2023-05-07T01:33:38;10.10;;;2.92;;
34832;SDS011;55941;50.800;4.342;2023-05-07T01:36:06;10.35;;;2.60;;
34832;SDS011;55941;50.800;4.342;2023-05-07T01:38:36;8.63;;;2.67;;
34832;SDS011;55941;50.800;4.342;2023-05-07T01:41:02;8.90;;;2.45;;
34832;SDS011;55941;50.800;4.342;2023-05-07T01:43:29;9.48;;;2.80;;
34832;SDS011;55941;50.800;4.342;2023-05-07T01:45:55;7.78;;;2.85;;
34832;SDS011;55941;50.800;4.342;2023-05-07T01:48:24;11.70;;;2.90;;
34832;SDS011;55941;50.800;4.342;2023-05-07T01:50:50;14.52;;;3.15;;
34832;SDS011;55941;50.800;4.342;2023-05-07T01:53:16;12.38;;;2.95;;
34832;SDS011;55941;50.800;4.342;2023-05-07T01:55:42;11.07;;;3.28;;
34832;SDS011;55941;50.800;4.342;2023-05-07T01:58:07;15.30;;;3.42;;
34832;SDS011;55941;50.800;4.342;2023-05-07T02:00:33;13.65;;;2.95;;
34832;SDS011;55941;50.800;4.342;2023-05-07T02:02:59;12.13;;;2.90;;
34832;SDS011;55941;50.800;4.342;2023-05-07T02:05:25;11.75;;;3.65;;
34832;SDS011;55941;50.800;4.342;2023-05-07T02:07:51;14.50;;;2.95;;
34832;SDS011;55941;50.800;4.342;2023-05-07T02:10:17;10.50;;;2.72;;
34832;SDS011;55941;50.800;4.342;2023-05-07T02:12:42;13.15;;;3.10;;
34832;SDS011;55941;50.800;4.342;2023-05-07T02:15:08;13.25;;;3.58;;
34832;SDS011;55941;50.800;4.342;2023-05-07T02:17:35;13.73;;;3.10;;
34832;SDS011;55941;50.800;4.342;2023-05-07T02:20:04;12.57;;;2.47;;
34832;SDS011;55941;50.800;4.342;2023-05-07T02:22:32;11.40;;;3.20;;
34832;SDS011;55941;50.800;4.342;2023-05-07T02:24:57;13.20;;;2.92;;
34832;SDS011;55941;50.800;4.342;2023-05-07T02:27:23;11.25;;;3.10;;
34832;SDS011;55941;50.800;4.342;2023-05-07T02:29:49;12.20;;;2.95;;
34832;SDS011;55941;50.800;4.342;2023-05-07T02:32:14;10.52;;;3.20;;
34832;SDS011;55941;50.800;4.342;2023-05-07T02:34:40;12.98;;;2.95;;
34832;SDS011;55941;50.800;4.342;2023-05-07T02:37:06;17.63;;;3.05;;
34832;SDS011;55941;50.800;4.342;2023-05-07T02:39:31;10.98;;;2.75;;
34832;SDS011;55941;50.800;4.342;2023-05-07T02:41:57;13.43;;;2.92;;
34832;SDS011;55941;50.800;4.342;2023-05-07T02:44:23;9.77;;;2.50;;
34832;SDS011;55941;50.800;4.342;2023-05-07T02:46:49;6.82;;;2.40;;
34832;SDS011;55941;50.800;4.342;2023-05-07T02:49:14;11.45;;;2.65;;
34832;SDS011;55941;50.800;4.342;2023-05-07T02:51:40;9.10;;;2.53;;
34832;SDS011;55941;50.800;4.342;2023-05-07T02:54:06;8.77;;;2.53;;
34832;SDS011;55941;50.800;4.342;2023-05-07T02:56:32;9.88;;;2.88;;
34832;SDS011;55941;50.800;4.342;2023-05-07T02:58:58;17.83;;;3.50;;
34832;SDS011;55941;50.800;4.342;2023-05-07T03:01:24;14.88;;;2.72;;
34832;SDS011;55941;50.800;4.342;2023-05-07T03:03:50;13.25;;;2.88;;
34832;SDS011;55941;50.800;4.342;2023-05-07T03:06:16;15.80;;;3.30;;
34832;SDS011;55941;50.800;4.342;2023-05-07T03:08:42;12.15;;;2.83;;
34832;SDS011;55941;50.800;4.342;2023-05-07T03:11:10;9.77;;;2.63;;
34832;SDS011;55941;50.800;4.342;2023-05-07T03:13:35;9.90;;;3.13;;
34832;SDS011;55941;50.800;4.342;2023-05-07T03:16:01;11.38;;;2.90;;
34832;SDS011;55941;50.800;4.342;2023-05-07T03:18:27;13.05;;;3.10;;
34832;SDS011;55941;50.800;4.342;2023-05-07T03:20:53;10.35;;;2.47;;
34832;SDS011;55941;50.800;4.342;2023-05-07T03:23:18;12.43;;;2.70;;
34832;SDS011;55941;50.800;4.342;2023-05-07T03:25:44;10.00;;;2.85;;
34832;SDS011;55941;50.800;4.342;2023-05-07T03:28:10;9.40;;;2.35;;
34832;SDS011;55941;50.800;4.342;2023-05-07T03:30:35;10.40;;;2.97;;
34832;SDS011;55941;50.800;4.342;2023-05-07T03:33:01;16.98;;;2.67;;
34832;SDS011;55941;50.800;4.342;2023-05-07T03:35:27;8.55;;;2.80;;
34832;SDS011;55941;50.800;4.342;2023-05-07T03:37:53;10.73;;;2.80;;
34832;SDS011;55941;50.800;4.342;2023-05-07T03:40:19;11.48;;;2.90;;
34832;SDS011;55941;50.800;4.342;2023-05-07T03:42:44;9.88;;;2.85;;
34832;SDS011;55941;50.800;4.342;2023-05-07T03:45:10;10.05;;;2.72;;
34832;SDS011;55941;50.800;4.342;2023-05-07T03:47:36;12.07;;;3.03;;
34832;SDS011;55941;50.800;4.342;2023-05-07T03:50:03;14.50;;;3.03;;
34832;SDS011;55941;50.800;4.342;2023-05-07T03:52:29;15.30;;;3.00;;
34832;SDS011;55941;50.800;4.342;2023-05-07T03:54:55;6.95;;;2.50;;
34832;SDS011;55941;50.800;4.342;2023-05-07T03:57:20;10.70;;;2.67;;
34832;SDS011;55941;50.800;4.342;2023-05-07T03:59:46;15.45;;;2.90;;
34832;SDS011;55941;50.800;4.342;2023-05-07T04:02:12;14.20;;;2.85;;
34832;SDS011;55941;50.800;4.342;2023-05-07T04:04:39;8.68;;;2.42;;
34832;SDS011;55941;50.800;4.342;2023-05-07T04:07:05;10.30;;;2.90;;
34832;SDS011;55941;50.800;4.342;2023-05-07T04:09:32;12.48;;;2.42;;
34832;SDS011;55941;50.800;4.342;2023-05-07T04:11:58;9.10;;;2.78;;
34832;SDS011;55941;50.800;4.342;2023-05-07T04:14:24;13.45;;;3.00;;
34832;SDS011;55941;50.800;4.342;2023-05-07T04:16:49;15.82;;;3.08;;
34832;SDS011;55941;50.800;4.342;2023-05-07T04:19:15;13.90;;;2.95;;
34832;SDS011;55941;50.800;4.342;2023-05-07T04:21:41;11.23;;;2.67;;
34832;SDS011;55941;50.800;4.342;2023-05-07T04:24:07;11.82;;;2.63;;
34832;SDS011;55941;50.800;4.342;2023-05-07T04:26:32;13.30;;;3.13;;
34832;SDS011;55941;50.800;4.342;2023-05-07T04:28:58;9.20;;;2.90;;
34832;SDS011;55941;50.800;4.342;2023-05-07T04:31:25;10.60;;;2.65;;
34832;SDS011;55941;50.800;4.342;2023-05-07T04:33:51;17.00;;;3.20;;
34832;SDS011;55941;50.800;4.342;2023-05-07T04:36:17;9.52;;;2.47;;
34832;SDS011;55941;50.800;4.342;2023-05-07T04:38:42;15.95;;;2.83;;
34832;SDS011;55941;50.800;4.342;2023-05-07T04:41:08;12.38;;;2.80;;
34832;SDS011;55941;50.800;4.342;2023-05-07T04:43:35;8.18;;;2.88;;
34832;SDS011;55941;50.800;4.342;2023-05-07T04:46:00;17.48;;;2.55;;
34832;SDS011;55941;50.800;4.342;2023-05-07T04:48:26;11.55;;;3.03;;
34832;SDS011;55941;50.800;4.342;2023-05-07T04:50:53;15.75;;;3.33;;
34832;SDS011;55941;50.800;4.342;2023-05-07T04:53:19;13.23;;;2.42;;
34832;SDS011;55941;50.800;4.342;2023-05-07T04:55:46;14.45;;;2.83;;
34832;SDS011;55941;50.800;4.342;2023-05-07T04:58:12;10.90;;;2.20;;
34832;SDS011;55941;50.800;4.342;2023-05-07T05:00:38;8.60;;;2.85;;
34832;SDS011;55941;50.800;4.342;2023-05-07T05:03:05;18.10;;;2.45;;
34832;SDS011;55941;50.800;4.342;2023-05-07T05:05:32;14.43;;;2.75;;
34832;SDS011;55941;50.800;4.342;2023-05-07T05:07:58;12.52;;;2.70;;
34832;SDS011;55941;50.800;4.342;2023-05-07T05:10:24;13.18;;;2.45;;
34832;SDS011;55941;50.800;4.342;2023-05-07T05:12:50;22.13;;;2.90;;
34832;SDS011;55941;50.800;4.342;2023-05-07T05:15:16;12.02;;;2.38;;
34832;SDS011;55941;50.800;4.342;2023-05-07T05:17:42;9.45;;;2.70;;
34832;SDS011;55941;50.800;4.342;2023-05-07T05:20:08;10.90;;;3.25;;
34832;SDS011;55941;50.800;4.342;2023-05-07T05:22:35;17.98;;;4.15;;
34832;SDS011;55941;50.800;4.342;2023-05-07T05:25:01;12.73;;;3.00;;
34832;SDS011;55941;50.800;4.342;2023-05-07T05:27:27;8.77;;;3.10;;
34832;SDS011;55941;50.800;4.342;2023-05-07T05:29:54;12.98;;;3.17;;
34832;SDS011;55941;50.800;4.342;2023-05-07T05:32:19;15.05;;;3.05;;
34832;SDS011;55941;50.800;4.342;2023-05-07T05:34:45;8.30;;;3.05;;
34832;SDS011;55941;50.800;4.342;2023-05-07T05:37:11;11.15;;;3.10;;
34832;SDS011;55941;50.800;4.342;2023-05-07T05:39:37;13.80;;;3.08;;
34832;SDS011;55941;50.800;4.342;2023-05-07T05:42:03;13.00;;;2.90;;
34832;SDS011;55941;50.800;4.342;2023-05-07T05:44:28;15.35;;;3.63;;
34832;SDS011;55941;50.800;4.342;2023-05-07T05:46:54;8.30;;;3.03;;
34832;SDS011;55941;50.800;4.342;2023-05-07T05:49:22;8.30;;;3.03;;
34832;SDS011;55941;50.800;4.342;2023-05-07T05:51:48;12.52;;;3.80;;
34832;SDS011;55941;50.800;4.342;2023-05-07T05:54:14;11.90;;;4.43;;
34832;SDS011;55941;50.800;4.342;2023-05-07T05:56:40;18.10;;;4.32;;
34832;SDS011;55941;50.800;4.342;2023-05-07T05:59:06;20.13;;;4.78;;
34832;SDS011;55941;50.800;4.342;2023-05-07T06:01:32;12.60;;;4.72;;
34832;SDS011;55941;50.800;4.342;2023-05-07T06:03:58;19.00;;;4.40;;
34832;SDS011;55941;50.800;4.342;2023-05-07T06:06:24;12.60;;;4.55;;
34832;SDS011;55941;50.800;4.342;2023-05-07T06:08:51;12.73;;;4.55;;
34832;SDS011;55941;50.800;4.342;2023-05-07T06:11:16;17.08;;;5.25;;
34832;SDS011;55941;50.800;4.342;2023-05-07T06:13:42;12.75;;;4.63;;
34832;SDS011;55941;50.800;4.342;2023-05-07T06:16:08;16.95;;;6.30;;
34832;SDS011;55941;50.800;4.342;2023-05-07T06:18:34;17.58;;;4.97;;
34832;SDS011;55941;50.800;4.342;2023-05-07T06:21:01;18.63;;;5.22;;
34832;SDS011;55941;50.800;4.342;2023-05-07T06:23:27;23.95;;;6.05;;
34832;SDS011;55941;50.800;4.342;2023-05-07T06:25:53;22.58;;;5.82;;
34832;SDS011;55941;50.800;4.342;2023-05-07T06:28:18;16.73;;;6.07;;
34832;SDS011;55941;50.800;4.342;2023-05-07T06:30:45;19.50;;;5.38;;
34832;SDS011;55941;50.800;4.342;2023-05-07T06:33:10;18.75;;;6.30;;
34832;SDS011;55941;50.800;4.342;2023-05-07T06:35:36;13.57;;;5.28;;
34832;SDS011;55941;50.800;4.342;2023-05-07T06:38:03;16.55;;;6.00;;
34832;SDS011;55941;50.800;4.342;2023-05-07T06:40:29;16.73;;;5.53;;
34832;SDS011;55941;50.800;4.342;2023-05-07T06:42:55;20.05;;;6.13;;
34832;SDS011;55941;50.800;4.342;2023-05-07T06:45:21;15.48;;;5.30;;
34832;SDS011;55941;50.800;4.342;2023-05-07T06:47:48;16.23;;;5.50;;
34832;SDS011;55941;50.800;4.342;2023-05-07T06:50:13;17.60;;;4.88;;
34832;SDS011;55941;50.800;4.342;2023-05-07T06:52:41;19.45;;;5.60;;
34832;SDS011;55941;50.800;4.342;2023-05-07T06:55:08;15.15;;;5.47;;
34832;SDS011;55941;50.800;4.342;2023-05-07T06:57:34;14.10;;;5.30;;
34832;SDS011;55941;50.800;4.342;2023-05-07T07:00:00;14.73;;;5.05;;
34832;SDS011;55941;50.800;4.342;2023-05-07T07:02:26;14.20;;;5.15;;
34832;SDS011;55941;50.800;4.342;2023-05-07T07:04:52;15.57;;;5.07;;
34832;SDS011;55941;50.800;4.342;2023-05-07T07:07:17;15.65;;;4.70;;
34832;SDS011;55941;50.800;4.342;2023-05-07T07:09:43;19.23;;;4.97;;
34832;SDS011;55941;50.800;4.342;2023-05-07T07:12:09;12.75;;;4.70;;
34832;SDS011;55941;50.800;4.342;2023-05-07T07:14:36;13.25;;;4.50;;
34832;SDS011;55941;50.800;4.342;2023-05-07T07:17:01;17.90;;;5.80;;
34832;SDS011;55941;50.800;4.342;2023-05-07T07:19:27;22.67;;;5.40;;
34832;SDS011;55941;50.800;4.342;2023-05-07T07:21:53;15.00;;;5.00;;
34832;SDS011;55941;50.800;4.342;2023-05-07T07:24:19;13.23;;;5.32;;
34832;SDS011;55941;50.800;4.342;2023-05-07T07:26:46;10.75;;;4.60;;
34832;SDS011;55941;50.800;4.342;2023-05-07T07:29:12;18.38;;;5.05;;
34832;SDS011;55941;50.800;4.342;2023-05-07T07:31:38;12.00;;;4.30;;
34832;SDS011;55941;50.800;4.342;2023-05-07T07:34:04;13.27;;;4.97;;
34832;SDS011;55941;50.800;4.342;2023-05-07T07:36:30;13.10;;;4.10;;
34832;SDS011;55941;50.800;4.342;2023-05-07T07:38:56;10.27;;;4.10;;
34832;SDS011;55941;50.800;4.342;2023-05-07T07:41:22;14.70;;;4.90;;
34832;SDS011;55941;50.800;4.342;2023-05-07T07:43:47;12.40;;;4.35;;
34832;SDS011;55941;50.800;4.342;2023-05-07T07:46:13;12.85;;;5.10;;
34832;SDS011;55941;50.800;4.342;2023-05-07T07:48:39;14.07;;;4.63;;
34832;SDS011;55941;50.800;4.342;2023-05-07T07:51:06;14.30;;;4.15;;
34832;SDS011;55941;50.800;4.342;2023-05-07T07:53:32;14.23;;;5.63;;
34832;SDS011;55941;50.800;4.342;2023-05-07T07:55:58;15.60;;;4.60;;
34832;SDS011;55941;50.800;4.342;2023-05-07T07:58:24;11.02;;;4.50;;
34832;SDS011;55941;50.800;4.342;2023-05-07T08:00:49;12.15;;;4.88;;
34832;SDS011;55941;50.800;4.342;2023-05-07T08:03:21;20.13;;;5.57;;
34832;SDS011;55941;50.800;4.342;2023-05-07T08:05:48;11.15;;;4.03;;
34832;SDS011;55941;50.800;4.342;2023-05-07T08:08:16;12.52;;;4.55;;
34832;SDS011;55941;50.800;4.342;2023-05-07T08:10:42;11.93;;;4.38;;
34832;SDS011;55941;50.800;4.342;2023-05-07T08:13:08;21.17;;;5.03;;
34832;SDS011;55941;50.800;4.342;2023-05-07T08:15:34;11.13;;;4.40;;
34832;SDS011;55941;50.800;4.342;2023-05-07T08:18:00;14.75;;;5.85;;
34832;SDS011;55941;50.800;4.342;2023-05-07T08:20:27;16.45;;;4.72;;
34832;SDS011;55941;50.800;4.342;2023-05-07T08:22:54;12.80;;;4.07;;
34832;SDS011;55941;50.800;4.342;2023-05-07T08:25:20;13.00;;;4.57;;
34832;SDS011;55941;50.800;4.342;2023-05-07T08:27:46;13.63;;;4.30;;
34832;SDS011;55941;50.800;4.342;2023-05-07T08:30:12;8.48;;;4.30;;
34832;SDS011;55941;50.800;4.342;2023-05-07T08:32:38;11.30;;;4.60;;
34832;SDS011;55941;50.800;4.342;2023-05-07T08:35:04;12.30;;;4.75;;
34832;SDS011;55941;50.800;4.342;2023-05-07T08:37:30;9.20;;;3.85;;
34832;SDS011;55941;50.800;4.342;2023-05-07T08:39:56;10.98;;;4.57;;
34832;SDS011;55941;50.800;4.342;2023-05-07T08:42:23;11.88;;;4.75;;
34832;SDS011;55941;50.800;4.342;2023-05-07T08:44:50;9.63;;;3.45;;
34832;SDS011;55941;50.800;4.342;2023-05-07T08:47:19;13.55;;;5.13;;
34832;SDS011;55941;50.800;4.342;2023-05-07T08:49:47;9.90;;;4.38;;
34832;SDS011;55941;50.800;4.342;2023-05-07T08:52:14;11.57;;;4.63;;
34832;SDS011;55941;50.800;4.342;2023-05-07T08:54:40;13.45;;;4.28;;
34832;SDS011;55941;50.800;4.342;2023-05-07T08:57:06;13.73;;;4.47;;
34832;SDS011;55941;50.800;4.342;2023-05-07T08:59:32;12.52;;;4.15;;
34832;SDS011;55941;50.800;4.342;2023-05-07T09:01:58;12.50;;;4.03;;
34832;SDS011;55941;50.800;4.342;2023-05-07T09:04:24;11.25;;;4.38;;
34832;SDS011;55941;50.800;4.342;2023-05-07T09:06:50;11.23;;;3.90;;
34832;SDS011;55941;50.800;4.342;2023-05-07T09:09:16;11.68;;;3.80;;
34832;SDS011;55941;50.800;4.342;2023-05-07T09:11:45;11.13;;;3.42;;
34832;SDS011;55941;50.800;4.342;2023-05-07T09:14:11;12.00;;;4.22;;
34832;SDS011;55941;50.800;4.342;2023-05-07T09:16:38;7.55;;;3.30;;
34832;SDS011;55941;50.800;4.342;2023-05-07T09:19:03;14.15;;;3.72;;
34832;SDS011;55941;50.800;4.342;2023-05-07T09:21:30;9.13;;;3.67;;
34832;SDS011;55941;50.800;4.342;2023-05-07T09:23:56;14.85;;;3.67;;
34832;SDS011;55941;50.800;4.342;2023-05-07T09:26:22;11.35;;;4.22;;
34832;SDS011;55941;50.800;4.342;2023-05-07T09:28:49;12.05;;;3.72;;
34832;SDS011;55941;50.800;4.342;2023-05-07T09:31:16;14.30;;;3.78;;
34832;SDS011;55941;50.800;4.342;2023-05-07T09:33:42;7.25;;;2.63;;
34832;SDS011;55941;50.800;4.342;2023-05-07T09:36:08;9.07;;;2.97;;
34832;SDS011;55941;50.800;4.342;2023-05-07T09:38:35;9.73;;;2.75;;
34832;SDS011;55941;50.800;4.342;2023-05-07T09:41:06;9.00;;;3.30;;
34832;SDS011;55941;50.800;4.342;2023-05-07T09:46:04;6.93;;;2.50;;
34832;SDS011;55941;50.800;4.342;2023-05-07T09:48:38;9.13;;;3.42;;
34832;SDS011;55941;50.800;4.342;2023-05-07T09:51:18;9.70;;;3.42;;
34832;SDS011;55941;50.800;4.342;2023-05-07T09:53:52;13.13;;;4.10;;
34832;SDS011;55941;50.800;4.342;2023-05-07T09:56:18;8.82;;;3.58;;
34832;SDS011;55941;50.800;4.342;2023-05-07T09:58:45;9.70;;;3.75;;
34832;SDS011;55941;50.800;4.342;2023-05-07T10:01:12;7.90;;;3.60;;
34832;SDS011;55941;50.800;4.342;2023-05-07T10:03:41;8.20;;;3.60;;
34832;SDS011;55941;50.800;4.342;2023-05-07T10:06:10;10.82;;;3.78;;
34832;SDS011;55941;50.800;4.342;2023-05-07T10:08:39;8.15;;;3.65;;
34832;SDS011;55941;50.800;4.342;2023-05-07T10:11:06;9.25;;;3.58;;
34832;SDS011;55941;50.800;4.342;2023-05-07T10:13:35;8.55;;;3.38;;
34832;SDS011;55941;50.800;4.342;2023-05-07T10:16:03;12.57;;;4.00;;
34832;SDS011;55941;50.800;4.342;2023-05-07T10:18:30;8.35;;;2.92;;
34832;SDS011;55941;50.800;4.342;2023-05-07T10:21:11;5.43;;;2.88;;
34832;SDS011;55941;50.800;4.342;2023-05-07T10:23:42;8.77;;;2.92;;
34832;SDS011;55941;50.800;4.342;2023-05-07T10:26:11;8.55;;;2.80;;
34832;SDS011;55941;50.800;4.342;2023-05-07T10:28:41;8.80;;;3.05;;
34832;SDS011;55941;50.800;4.342;2023-05-07T10:33:48;6.03;;;2.50;;
34832;SDS011;55941;50.800;4.342;2023-05-07T10:36:16;6.93;;;2.75;;
34832;SDS011;55941;50.800;4.342;2023-05-07T10:38:43;6.82;;;2.60;;
34832;SDS011;55941;50.800;4.342;2023-05-07T10:41:10;6.53;;;2.10;;
34832;SDS011;55941;50.800;4.342;2023-05-07T10:43:45;7.53;;;2.65;;
34832;SDS011;55941;50.800;4.342;2023-05-07T10:46:15;5.78;;;2.33;;
34832;SDS011;55941;50.800;4.342;2023-05-07T10:51:26;4.67;;;2.00;;
34832;SDS011;55941;50.800;4.342;2023-05-07T10:56:37;7.32;;;2.00;;
34832;SDS011;55941;50.800;4.342;2023-05-07T10:59:37;9.52;;;2.20;;
34832;SDS011;55941;50.800;4.342;2023-05-07T11:02:00;7.63;;;1.90;;
34832;SDS011;55941;50.800;4.342;2023-05-07T11:04:32;6.25;;;2.47;;
34832;SDS011;55941;50.800;4.342;2023-05-07T11:12:19;5.63;;;2.20;;
34832;SDS011;55941;50.800;4.342;2023-05-07T11:15:09;6.60;;;2.50;;
34832;SDS011;55941;50.800;4.342;2023-05-07T11:17:55;6.68;;;2.50;;
34832;SDS011;55941;50.800;4.342;2023-05-07T11:26:08;9.02;;;3.60;;
34832;SDS011;55941;50.800;4.342;2023-05-07T11:28:39;8.73;;;3.30;;
34832;SDS011;55941;50.800;4.342;2023-05-07T11:31:06;7.22;;;4.18;;
34832;SDS011;55941;50.800;4.342;2023-05-07T11:33:33;8.35;;;3.33;;
34832;SDS011;55941;50.800;4.342;2023-05-07T11:36:00;8.55;;;2.78;;
34832;SDS011;55941;50.800;4.342;2023-05-07T11:38:28;5.05;;;2.75;;
34832;SDS011;55941;50.800;4.342;2023-05-07T11:41:03;6.82;;;2.33;;
34832;SDS011;55941;50.800;4.342;2023-05-07T11:43:32;7.45;;;2.63;;
34832;SDS011;55941;50.800;4.342;2023-05-07T11:46:10;10.55;;;2.33;;
34832;SDS011;55941;50.800;4.342;2023-05-07T11:48:39;4.35;;;1.90;;
34832;SDS011;55941;50.800;4.342;2023-05-07T11:51:06;4.90;;;2.08;;
34832;SDS011;55941;50.800;4.342;2023-05-07T11:58:34;7.68;;;1.85;;
34832;SDS011;55941;50.800;4.342;2023-05-07T12:01:01;6.35;;;2.13;;
34832;SDS011;55941;50.800;4.342;2023-05-07T12:03:27;6.47;;;2.33;;
34832;SDS011;55941;50.800;4.342;2023-05-07T12:05:53;7.30;;;2.75;;
34832;SDS011;55941;50.800;4.342;2023-05-07T12:08:20;6.88;;;2.42;;
34832;SDS011;55941;50.800;4.342;2023-05-07T12:10:50;8.20;;;2.35;;
34832;SDS011;55941;50.800;4.342;2023-05-07T12:13:20;4.57;;;2.38;;
34832;SDS011;55941;50.800;4.342;2023-05-07T12:15:53;4.23;;;1.80;;
34832;SDS011;55941;50.800;4.342;2023-05-07T12:18:21;5.63;;;1.90;;
34832;SDS011;55941;50.800;4.342;2023-05-07T12:20:48;4.45;;;2.33;;
34832;SDS011;55941;50.800;4.342;2023-05-07T12:23:15;6.07;;;3.00;;
34832;SDS011;55941;50.800;4.342;2023-05-07T12:25:42;5.72;;;2.90;;
34832;SDS011;55941;50.800;4.342;2023-05-07T12:28:17;6.57;;;3.03;;
34832;SDS011;55941;50.800;4.342;2023-05-07T12:30:45;4.60;;;3.00;;
34832;SDS011;55941;50.800;4.342;2023-05-07T12:33:12;6.43;;;3.38;;
34832;SDS011;55941;50.800;4.342;2023-05-07T12:35:42;4.82;;;3.63;;
34832;SDS011;55941;50.800;4.342;2023-05-07T12:38:09;6.80;;;4.25;;
34832;SDS011;55941;50.800;4.342;2023-05-07T12:40:37;7.88;;;3.80;;
34832;SDS011;55941;50.800;4.342;2023-05-07T12:43:21;9.18;;;4.63;;
34832;SDS011;55941;50.800;4.342;2023-05-07T12:45:57;7.75;;;5.05;;
34832;SDS011;55941;50.800;4.342;2023-05-07T12:48:25;7.15;;;4.80;;
34832;SDS011;55941;50.800;4.342;2023-05-07T12:50:55;6.57;;;4.72;;
34832;SDS011;55941;50.800;4.342;2023-05-07T12:53:23;8.88;;;5.43;;
34832;SDS011;55941;50.800;4.342;2023-05-07T12:55:54;12.70;;;5.72;;
34832;SDS011;55941;50.800;4.342;2023-05-07T12:58:29;10.45;;;5.50;;
34832;SDS011;55941;50.800;4.342;2023-05-07T13:00:58;9.57;;;5.30;;
34832;SDS011;55941;50.800;4.342;2023-05-07T13:03:29;9.85;;;5.50;;
34832;SDS011;55941;50.800;4.342;2023-05-07T13:05:58;9.30;;;5.32;;
34832;SDS011;55941;50.800;4.342;2023-05-07T13:08:32;12.07;;;5.47;;
34832;SDS011;55941;50.800;4.342;2023-05-07T13:10:59;7.35;;;4.55;;
34832;SDS011;55941;50.800;4.342;2023-05-07T13:13:29;9.25;;;5.10;;
34832;SDS011;55941;50.800;4.342;2023-05-07T13:15:55;8.38;;;5.68;;
34832;SDS011;55941;50.800;4.342;2023-05-07T13:18:21;9.27;;;5.53;;
34832;SDS011;55941;50.800;4.342;2023-05-07T13:20:50;7.20;;;5.80;;
34832;SDS011;55941;50.800;4.342;2023-05-07T13:23:17;9.52;;;6.38;;
34832;SDS011;55941;50.800;4.342;2023-05-07T13:25:43;7.97;;;6.53;;
34832;SDS011;55941;50.800;4.342;2023-05-07T13:28:08;10.45;;;6.95;;
34832;SDS011;55941;50.800;4.342;2023-05-07T13:30:34;9.52;;;7.28;;
34832;SDS011;55941;50.800;4.342;2023-05-07T13:33:00;8.88;;;6.82;;
34832;SDS011;55941;50.800;4.342;2023-05-07T13:35:27;11.65;;;7.18;;
34832;SDS011;55941;50.800;4.342;2023-05-07T13:37:54;9.10;;;6.97;;
34832;SDS011;55941;50.800;4.342;2023-05-07T13:40:22;7.18;;;6.32;;
34832;SDS011;55941;50.800;4.342;2023-05-07T13:42:49;9.35;;;6.82;;
34832;SDS011;55941;50.800;4.342;2023-05-07T13:45:16;10.07;;;6.47;;
34832;SDS011;55941;50.800;4.342;2023-05-07T13:47:43;10.05;;;6.80;;
34832;SDS011;55941;50.800;4.342;2023-05-07T13:50:10;8.77;;;6.35;;
34832;SDS011;55941;50.800;4.342;2023-05-07T13:52:39;8.77;;;6.70;;
34832;SDS011;55941;50.800;4.342;2023-05-07T13:55:10;13.82;;;7.28;;
34832;SDS011;55941;50.800;4.342;2023-05-07T13:57:36;9.90;;;6.70;;
34832;SDS011;55941;50.800;4.342;2023-05-07T14:00:03;10.88;;;6.28;;
34832;SDS011;55941;50.800;4.342;2023-05-07T14:02:30;9.50;;;5.95;;
34832;SDS011;55941;50.800;4.342;2023-05-07T14:04:56;11.65;;;6.13;;
34832;SDS011;55941;50.800;4.342;2023-05-07T14:07:22;8.57;;;5.70;;
34832;SDS011;55941;50.800;4.342;2023-05-07T14:09:48;10.80;;;6.40;;
34832;SDS011;55941;50.800;4.342;2023-05-07T14:12:14;9.48;;;6.20;;
34832;SDS011;55941;50.800;4.342;2023-05-07T14:14:40;12.65;;;6.28;;
34832;SDS011;55941;50.800;4.342;2023-05-07T14:17:06;12.85;;;6.85;;
34832;SDS011;55941;50.800;4.342;2023-05-07T14:19:33;7.43;;;6.13;;
34832;SDS011;55941;50.800;4.342;2023-05-07T14:21:59;10.63;;;6.00;;
34832;SDS011;55941;50.800;4.342;2023-05-07T14:24:25;9.68;;;6.00;;
34832;SDS011;55941;50.800;4.342;2023-05-07T14:26:51;8.70;;;5.65;;
34832;SDS011;55941;50.800;4.342;2023-05-07T14:29:17;8.38;;;5.78;;
34832;SDS011;55941;50.800;4.342;2023-05-07T14:31:44;7.85;;;5.43;;
34832;SDS011;55941;50.800;4.342;2023-05-07T14:34:10;7.85;;;5.90;;
34832;SDS011;55941;50.800;4.342;2023-05-07T14:36:36;34.88;;;10.68;;
34832;SDS011;55941;50.800;4.342;2023-05-07T14:39:03;10.25;;;5.97;;
34832;SDS011;55941;50.800;4.342;2023-05-07T14:41:30;9.27;;;5.88;;
34832;SDS011;55941;50.800;4.342;2023-05-07T14:43:56;9.90;;;5.70;;
34832;SDS011;55941;50.800;4.342;2023-05-07T14:46:23;8.95;;;5.45;;
34832;SDS011;55941;50.800;4.342;2023-05-07T14:48:50;9.52;;;5.32;;
34832;SDS011;55941;50.800;4.342;2023-05-07T14:51:16;7.22;;;4.60;;
34832;SDS011;55941;50.800;4.342;2023-05-07T14:53:42;7.25;;;5.00;;
34832;SDS011;55941;50.800;4.342;2023-05-07T14:56:08;8.20;;;4.75;;
34832;SDS011;55941;50.800;4.342;2023-05-07T14:58:34;9.55;;;4.93;;
34832;SDS011;55941;50.800;4.342;2023-05-07T15:01:00;11.52;;;5.13;;
34832;SDS011;55941;50.800;4.342;2023-05-07T15:03:27;6.53;;;4.30;;
34832;SDS011;55941;50.800;4.342;2023-05-07T15:05:53;7.18;;;4.80;;
34832;SDS011;55941;50.800;4.342;2023-05-07T15:08:19;10.57;;;5.18;;